VOTVVOCI

Guest
Details From VOTV - THIRUVANANTHAPURAM INTL
To VOCI - COCHIN INTL
Flight Number -
Tags generated
Created
Modified
Stats Distance 106 nm / 196 km
Max Altitude 100 ft / 30 m
Waypoints 3
Social Downloads 3
Likes 0
Share VATSIM

Download

Looking for another format? Having issues loading an existing format? Contact us
Advertisement - Login to hide

Notes

Basic altitude profile: - Ascent Rate: 2500ft/min - Ascent Speed: 300kts - Cruise Altitude: 15000ft - Cruise Speed: 170kts - Descent Rate: 1500ft/min - Descent Speed: 280kts Options: - Use NATs: yes - Use PACOTS: yes - Use low airways: yes - Use high airways: yes

Route

VOTV TVM VOCI

ID Type Via Altitude Latitude Longitude Leg Dist Tot Dist Heading (true) Name
O VOTV APT - 0 ft / 0 m 8.48212˚ 76.92012˚ - 0 nm - THIRUVANANTHAPURAM INTL
TVM VOR - 100 ft / 30 m 8.47481˚ 76.92472˚ 0 nm 0 nm 148° / 148° TRIVANDRUM VOR-DME
O VOCI APT - 0 ft / 0 m 10.15200˚ 76.40191˚ 105 nm 105 nm 343° / 343° COCHIN INTL

Altitude Profile

Advertisement - Login to hide

VOTV

Details ICAO VOTV (TRV)
Name THIRUVANANTHAPURAM INTL
Region India
Timezone Asia/Kolkata (UTC+5.5)
Stats Elevation 15 ft / 5 m (AMSL)
Location 8.482121° 76.920115°
Runways 1
Magnetic Variation 1.933° W

METAR

VOTV 110600Z 29007KT 6000 SCT015 FEW025TCU 31/24 Q1012 NOSIG

Decode

TAF

TAF VOTV 110500Z 1106/1212 24010KT 5000 HZ FEW015 TEMPO 1110/1114 SCT015 FEW025CB SCT090 BECMG 1116/1117 10005KT 3000 HZ TEMPO 1122/1202 2000 BR SCT015 SCT090 BECMG 1205/1206 24005KT 5000 HZ TEMPO 1209/1212 FEW015 FEW025CB

Decode

Departure Runways

ID Width Length Bearing (true) Bearing (mag) Surface Threshold Offset Overrun Length
14 150 ft / 46 m 11,180 ft / 3,408 m 136.04° 137.97° Asphalt 1,332 ft / 406 m 180 ft / 55 m
32 150 ft / 46 m 11,180 ft / 3,408 m 316.04° 317.97° Asphalt 522 ft / 159 m 0 ft / 0 m

VOCI

Details ICAO VOCI (COK)
Name COCHIN INTL
Region India
Timezone Asia/Kolkata (UTC+5.5)
Stats Elevation 30 ft / 9 m (AMSL)
Location 10.151996° 76.401905°
Runways 1
Magnetic Variation 1.655° W

METAR

VOCI 110600Z 04002KT 3000 HZ SCT012 BKN080 28/24 Q1013 NOSIG

Decode

TAF

TAF VOCI 110500Z 1106/1212 00000KT 5000 HZ FEW012 BKN080 TEMPO 1110/1113 FEW015 FEW025CB BECMG 1116/1117 00000KT 3000 HZ TEMPO 1122/1202 2000 BR SCT015 BKN080 BECMG 1206/1207 23005KT 5000 HZ TEMPO 1209/1212 FEW015 FEW025CB

Decode

Destination Runways

ID Width Length Bearing (true) Bearing (mag) Surface Threshold Offset Overrun Length
09 148 ft / 45 m 11,139 ft / 3,395 m 87.86° 89.51° Asphalt 0 ft / 0 m 195 ft / 59 m
27 148 ft / 45 m 11,139 ft / 3,395 m 267.87° 269.52° Asphalt 0 ft / 0 m 195 ft / 59 m

Approach Navaids

Runway Type Ident Frequency Range Bearing (true) Bearing (mag) Slope Elevation
27 Localiser ICIL 110.30 MHz 18 nm / 33 km 266.21° 267.86° - 30 ft / 9 m (AMSL)
27 Glidescope ICIL 110.30 MHz 10 nm / 19 km 267.87° 269.52° 3.00° 28 ft / 9 m (AMSL)
27 DME ICIL 110.30 MHz 18 nm / 33 km - - - 40 ft / 12 m (AMSL)

Popular Alternatives